createdAt,value
2019-03-01T00:01:31.934Z,7.27
2019-03-01T00:04:32.430Z,11.00
2019-03-01T00:08:08.896Z,6.00
2019-03-01T00:11:25.244Z,8.53
2019-03-01T00:14:53.656Z,7.93
2019-03-01T00:18:17.450Z,7.40
2019-03-01T00:21:32.513Z,9.23
2019-03-01T00:24:48.778Z,8.80
2019-03-01T00:28:12.584Z,12.07
2019-03-01T00:31:28.389Z,15.50
2019-03-01T00:34:49.620Z,17.80
2019-03-01T00:38:05.385Z,13.07
2019-03-01T00:41:10.681Z,9.90
2019-03-01T00:44:44.936Z,11.87
2019-03-01T00:47:17.754Z,10.67
2019-03-01T00:49:50.738Z,9.70
2019-03-01T00:52:24.577Z,9.60
2019-03-01T00:54:58.646Z,10.97
2019-03-01T00:57:31.359Z,11.27
2019-03-01T01:00:04.825Z,14.83
2019-03-01T01:02:37.943Z,11.27
2019-03-01T01:05:10.883Z,15.03
2019-03-01T01:07:44.061Z,9.33
2019-03-01T01:10:17.212Z,17.47
2019-03-01T01:12:51.559Z,18.03
2019-03-01T01:15:24.488Z,14.83
2019-03-01T01:17:57.581Z,13.80
2019-03-01T01:20:30.627Z,12.80
2019-03-01T01:23:03.574Z,10.20
2019-03-01T01:25:37.768Z,11.60
2019-03-01T01:28:10.583Z,11.03
2019-03-01T01:30:43.670Z,13.80
2019-03-01T01:33:16.915Z,12.63
2019-03-01T01:35:51.173Z,10.77
2019-03-01T01:38:24.656Z,11.80
2019-03-01T01:40:57.914Z,13.27
2019-03-01T01:43:30.947Z,24.53
2019-03-01T01:46:04.178Z,10.43
2019-03-01T01:48:38.603Z,10.13
2019-03-01T01:51:11.784Z,9.63
2019-03-01T01:53:44.872Z,9.23
2019-03-01T01:56:18.943Z,19.10
2019-03-01T01:58:53.506Z,13.03
2019-03-01T02:01:26.876Z,10.67
2019-03-01T02:04:00.431Z,13.67
2019-03-01T02:06:34.154Z,8.57
2019-03-01T02:09:21.127Z,7.77
2019-03-01T02:11:54.816Z,8.47
2019-03-01T02:14:28.370Z,7.80
2019-03-01T02:17:01.886Z,6.27
2019-03-01T02:19:35.252Z,10.47
2019-03-01T02:22:08.444Z,11.80
2019-03-01T02:24:41.804Z,10.13
2019-03-01T02:27:26.385Z,10.03
2019-03-01T02:30:00.705Z,10.67
2019-03-01T02:32:38.442Z,8.77
2019-03-01T02:35:14.392Z,13.27
2019-03-01T02:37:47.561Z,17.03
2019-03-01T02:40:20.319Z,7.57
2019-03-01T02:42:53.468Z,7.17
2019-03-01T02:45:26.314Z,11.10
2019-03-01T02:47:59.321Z,8.93
2019-03-01T02:50:32.316Z,7.83
2019-03-01T02:53:05.356Z,11.43
2019-03-01T02:55:38.114Z,8.20
2019-03-01T02:58:11.186Z,8.50
2019-03-01T03:00:44.065Z,9.23
2019-03-01T03:03:18.530Z,10.17
2019-03-01T03:06:10.690Z,8.70
2019-03-01T03:08:43.720Z,10.23
2019-03-01T03:11:16.493Z,8.07
2019-03-01T03:13:49.467Z,7.47
2019-03-01T03:16:23.013Z,6.40
2019-03-01T03:18:55.863Z,7.20
2019-03-01T03:21:28.904Z,7.03
2019-03-01T03:24:02.143Z,6.80
2019-03-01T03:26:34.991Z,6.67
2019-03-01T03:29:07.863Z,7.30
2019-03-01T03:31:40.833Z,7.83
2019-03-01T03:34:13.823Z,7.70
2019-03-01T03:36:46.697Z,6.40
2019-03-01T03:39:19.354Z,7.07
2019-03-01T03:41:53.755Z,6.73
2019-03-01T03:44:26.634Z,7.23
2019-03-01T03:46:59.484Z,6.30
2019-03-01T03:49:32.322Z,7.90
2019-03-01T03:52:06.940Z,8.40
2019-03-01T03:54:39.819Z,7.53
2019-03-01T03:57:12.855Z,8.00
2019-03-01T03:59:46.004Z,9.13
2019-03-01T04:02:19.023Z,7.77
2019-03-01T04:04:52.148Z,16.20
2019-03-01T04:07:25.094Z,8.53
2019-03-01T04:09:57.951Z,11.97
2019-03-01T04:12:30.678Z,8.83
2019-03-01T04:15:03.494Z,7.30
2019-03-01T04:17:36.584Z,7.93
2019-03-01T04:20:12.112Z,7.30
2019-03-01T04:22:44.989Z,7.00
2019-03-01T04:25:17.950Z,6.57
2019-03-01T04:27:53.238Z,6.50
2019-03-01T04:30:25.373Z,7.17
2019-03-01T04:32:58.696Z,6.80
2019-03-01T04:35:31.812Z,6.33
2019-03-01T04:38:04.604Z,7.10
2019-03-01T04:40:37.924Z,6.70
2019-03-01T04:43:10.865Z,6.17
2019-03-01T04:45:43.763Z,6.53
2019-03-01T04:48:16.548Z,6.40
2019-03-01T04:50:49.430Z,7.07
2019-03-01T04:53:23.694Z,15.90
2019-03-01T04:55:56.375Z,7.87
2019-03-01T04:58:29.267Z,8.17
2019-03-01T05:01:02.168Z,10.60
2019-03-01T05:03:34.813Z,8.10
2019-03-01T05:06:07.794Z,10.63
2019-03-01T05:08:41.058Z,9.30
2019-03-01T05:11:14.448Z,8.50
2019-03-01T05:13:47.692Z,10.57
2019-03-01T05:16:20.757Z,10.07
2019-03-01T05:18:54.103Z,7.63
2019-03-01T05:21:26.922Z,8.07
2019-03-01T05:23:59.916Z,8.43
2019-03-01T05:26:32.665Z,9.60
2019-03-01T05:29:05.645Z,8.57
2019-03-01T05:31:38.460Z,7.90
2019-03-01T05:34:11.433Z,7.93
2019-03-01T05:36:44.514Z,8.17
2019-03-01T05:39:17.558Z,7.80
2019-03-01T05:41:50.878Z,10.10
2019-03-01T05:44:23.980Z,8.80
2019-03-01T05:46:57.412Z,13.30
2019-03-01T05:49:31.116Z,11.60
2019-03-01T05:52:03.932Z,9.97
2019-03-01T05:54:36.899Z,11.43
2019-03-01T05:57:10.470Z,18.07
2019-03-01T05:59:43.979Z,10.27
2019-03-01T06:02:57.572Z,9.10
2019-03-01T06:05:44.230Z,11.53
2019-03-01T06:09:06.560Z,9.20
2019-03-01T06:12:33.671Z,12.87
2019-03-01T06:16:01.324Z,11.07
2019-03-01T06:19:26.766Z,12.40
2019-03-01T06:23:22.040Z,9.87
2019-03-01T06:26:57.519Z,10.37
2019-03-01T06:30:07.156Z,9.70
2019-03-01T06:33:32.075Z,9.03
2019-03-01T06:36:36.025Z,11.37
2019-03-01T06:39:58.739Z,11.20
2019-03-01T06:43:17.114Z,9.53
2019-03-01T06:46:59.521Z,8.87
2019-03-01T06:49:50.553Z,10.23
2019-03-01T06:52:24.081Z,11.67
2019-03-01T06:54:57.197Z,10.87
2019-03-01T06:57:30.735Z,11.30
2019-03-01T07:00:05.624Z,12.03
2019-03-01T07:02:44.865Z,11.43
2019-03-01T07:05:17.949Z,10.40
2019-03-01T07:07:51.120Z,10.50
2019-03-01T07:10:24.555Z,16.77
2019-03-01T07:12:57.709Z,12.67
2019-03-01T07:15:30.718Z,12.30
2019-03-01T07:18:04.053Z,11.97
2019-03-01T07:20:37.096Z,12.13
2019-03-01T07:23:10.235Z,11.43
2019-03-01T07:25:43.211Z,13.07
2019-03-01T07:28:16.515Z,11.53
2019-03-01T07:30:49.593Z,12.43
2019-03-01T07:33:23.828Z,11.93
2019-03-01T07:35:58.037Z,11.03
2019-03-01T07:38:31.033Z,11.27
2019-03-01T07:41:04.097Z,12.23
2019-03-01T07:43:37.273Z,11.70
2019-03-01T07:46:10.669Z,10.97
2019-03-01T07:48:44.297Z,11.10
2019-03-01T07:51:18.571Z,10.53
2019-03-01T07:53:51.963Z,11.77
2019-03-01T07:56:29.646Z,11.10
2019-03-01T07:59:02.789Z,11.47
2019-03-01T08:01:35.935Z,10.17
2019-03-01T08:04:09.146Z,11.23
2019-03-01T08:06:42.080Z,12.20
2019-03-01T08:09:15.695Z,11.43
2019-03-01T08:11:49.881Z,10.73
2019-03-01T08:14:24.659Z,10.63
2019-03-01T08:16:57.942Z,10.83
2019-03-01T08:19:30.951Z,11.03
2019-03-01T08:22:04.007Z,11.73
2019-03-01T08:24:36.968Z,11.30
2019-03-01T08:27:11.180Z,10.83
2019-03-01T08:29:45.989Z,11.20
2019-03-01T08:32:19.223Z,11.57
2019-03-01T08:34:53.673Z,13.33
2019-03-01T08:37:27.447Z,21.67
2019-03-01T08:40:00.432Z,12.47
2019-03-01T08:42:36.436Z,12.53
2019-03-01T08:45:09.835Z,12.23
2019-03-01T08:47:43.037Z,12.90
2019-03-01T08:50:18.457Z,12.53
2019-03-01T08:52:51.318Z,13.37
2019-03-01T08:55:24.971Z,12.10
2019-03-01T08:57:59.787Z,14.03
2019-03-01T09:00:34.724Z,13.33
2019-03-01T09:03:22.959Z,11.37
2019-03-01T09:05:56.541Z,13.53
2019-03-01T09:08:29.947Z,13.30
2019-03-01T09:11:05.573Z,13.50
2019-03-01T09:13:37.560Z,14.00
2019-03-01T09:16:11.007Z,15.70
2019-03-01T09:18:46.550Z,14.70
2019-03-01T09:21:19.368Z,14.47
2019-03-01T09:23:55.036Z,13.57
2019-03-01T09:26:27.581Z,13.20
2019-03-01T09:29:01.513Z,13.93
2019-03-01T09:31:34.707Z,15.47
2019-03-01T09:34:08.056Z,14.70
2019-03-01T09:36:54.959Z,14.20
2019-03-01T09:39:28.172Z,14.00
2019-03-01T09:42:04.413Z,14.17
2019-03-01T09:44:38.404Z,14.03
2019-03-01T09:47:11.360Z,13.43
2019-03-01T09:49:44.401Z,13.13
2019-03-01T09:52:20.387Z,14.20
2019-03-01T09:54:53.015Z,13.40
2019-03-01T09:57:25.929Z,14.67
2019-03-01T09:59:59.035Z,12.77
2019-03-01T10:02:32.270Z,13.20
2019-03-01T10:05:05.386Z,14.67
2019-03-01T10:07:38.564Z,13.47
2019-03-01T10:10:14.009Z,14.03
2019-03-01T10:12:47.162Z,14.00
2019-03-01T10:15:20.430Z,13.63
2019-03-01T10:17:54.117Z,13.53
2019-03-01T10:20:27.259Z,15.00
2019-03-01T10:23:00.583Z,13.37
2019-03-01T10:25:33.949Z,14.37
2019-03-01T10:28:07.259Z,16.03
2019-03-01T10:30:40.592Z,14.33
2019-03-01T10:33:13.907Z,14.43
2019-03-01T10:35:47.160Z,15.07
2019-03-01T10:38:20.493Z,16.33
2019-03-01T10:40:53.761Z,14.80
2019-03-01T10:43:27.022Z,15.17
2019-03-01T10:45:59.979Z,14.97
2019-03-01T10:48:32.974Z,15.77
2019-03-01T10:51:06.096Z,14.23
2019-03-01T10:53:38.997Z,15.73
2019-03-01T10:56:12.071Z,15.83
2019-03-01T10:58:45.133Z,16.07
2019-03-01T11:01:18.078Z,15.27
2019-03-01T11:03:50.975Z,14.33
2019-03-01T11:06:24.110Z,16.70
2019-03-01T11:08:57.451Z,15.23
2019-03-01T11:11:30.716Z,15.90
2019-03-01T11:14:03.809Z,15.27
2019-03-01T11:16:36.990Z,15.23
2019-03-01T11:19:09.958Z,15.30
2019-03-01T11:21:43.442Z,15.47
2019-03-01T11:24:16.798Z,15.23
2019-03-01T11:26:49.728Z,15.57
2019-03-01T11:29:22.921Z,16.27
2019-03-01T11:31:56.290Z,16.63
2019-03-01T11:34:29.517Z,15.87
2019-03-01T11:37:02.349Z,15.77
2019-03-01T11:39:35.567Z,15.83
2019-03-01T11:42:08.662Z,15.57
2019-03-01T11:44:41.639Z,15.87
2019-03-01T11:49:49.451Z,15.93
2019-03-01T11:52:22.465Z,24.77
2019-03-01T11:54:55.587Z,17.07
2019-03-01T11:57:29.295Z,16.23
2019-03-01T12:00:02.461Z,14.10
2019-03-01T12:02:35.755Z,16.10
2019-03-01T12:05:10.294Z,15.80
2019-03-01T12:07:43.340Z,15.67
2019-03-01T12:10:20.017Z,15.47
2019-03-01T12:12:53.521Z,15.53
2019-03-01T12:15:26.690Z,15.47
2019-03-01T12:18:00.186Z,13.97
2019-03-01T12:20:34.668Z,15.47
2019-03-01T12:23:07.875Z,14.50
2019-03-01T12:25:41.435Z,16.00
2019-03-01T12:28:14.592Z,15.87
2019-03-01T12:30:48.650Z,15.53
2019-03-01T12:33:21.909Z,15.23
2019-03-01T12:35:54.903Z,15.47
2019-03-01T12:38:27.936Z,15.63
2019-03-01T12:41:01.238Z,17.43
2019-03-01T12:43:34.236Z,16.17
2019-03-01T12:46:07.440Z,14.47
2019-03-01T12:48:40.798Z,16.17
2019-03-01T12:51:13.760Z,15.23
2019-03-01T12:53:47.226Z,14.93
2019-03-01T12:56:20.337Z,14.43
2019-03-01T12:58:53.407Z,13.57
2019-03-01T13:01:26.538Z,15.67
2019-03-01T13:03:59.760Z,14.40
2019-03-01T13:06:35.453Z,13.73
2019-03-01T13:09:15.270Z,14.70
2019-03-01T13:11:51.288Z,15.00
2019-03-01T13:14:23.562Z,14.43
2019-03-01T13:16:58.464Z,14.67
2019-03-01T13:19:32.526Z,15.07
2019-03-01T13:22:05.833Z,13.67
2019-03-01T13:24:40.591Z,13.13
2019-03-01T13:27:17.475Z,13.00
2019-03-01T13:29:49.028Z,12.70
2019-03-01T13:32:23.120Z,13.23
2019-03-01T13:34:56.615Z,14.50
2019-03-01T13:37:29.560Z,13.93
2019-03-01T13:40:02.891Z,14.07
2019-03-01T13:42:39.384Z,14.33
2019-03-01T13:45:15.802Z,14.27
2019-03-01T13:47:50.602Z,12.53
2019-03-01T13:50:23.877Z,11.63
2019-03-01T13:52:56.938Z,12.00
2019-03-01T13:55:30.230Z,11.60
2019-03-01T13:58:03.520Z,10.90
2019-03-01T14:00:36.939Z,11.67
2019-03-01T14:03:10.511Z,12.50
2019-03-01T14:05:44.203Z,12.17
2019-03-01T14:08:17.435Z,11.80
2019-03-01T14:10:50.537Z,10.10
2019-03-01T14:13:23.769Z,10.77
2019-03-01T14:15:57.072Z,10.83
2019-03-01T14:18:33.279Z,10.57
2019-03-01T14:21:06.830Z,11.13
2019-03-01T14:23:40.089Z,12.23
2019-03-01T14:26:15.032Z,11.93
2019-03-01T14:28:48.977Z,12.97
2019-03-01T14:31:22.205Z,11.97
2019-03-01T14:33:55.914Z,13.20
2019-03-01T14:36:29.386Z,13.53
2019-03-01T14:39:03.489Z,12.87
2019-03-01T14:41:37.406Z,12.77
2019-03-01T14:44:10.926Z,14.50
2019-03-01T14:46:44.114Z,14.47
2019-03-01T14:49:18.509Z,13.70
2019-03-01T14:51:53.063Z,14.83
2019-03-01T14:54:26.244Z,14.90
2019-03-01T14:57:12.976Z,15.23
2019-03-01T15:00:32.164Z,15.53
2019-03-01T15:03:34.703Z,15.63
2019-03-01T15:06:09.492Z,13.83
2019-03-01T15:08:45.098Z,13.47
2019-03-01T15:11:23.228Z,13.37
2019-03-01T15:13:57.509Z,12.40
2019-03-01T15:16:30.952Z,15.47
2019-03-01T15:19:04.739Z,16.43
2019-03-01T15:21:39.101Z,15.40
2019-03-01T15:24:12.382Z,15.93
2019-03-01T15:26:46.291Z,19.90
2019-03-01T15:29:19.185Z,17.70
2019-03-01T15:31:54.872Z,16.60
2019-03-01T15:34:26.723Z,16.50
2019-03-01T15:37:00.162Z,16.63
2019-03-01T15:39:33.535Z,15.60
2019-03-01T15:42:14.262Z,15.10
2019-03-01T15:44:46.204Z,14.67
2019-03-01T15:47:19.502Z,14.60
2019-03-01T15:49:52.610Z,14.80
2019-03-01T15:52:25.969Z,14.03
2019-03-01T15:54:59.275Z,15.07
2019-03-01T15:57:37.593Z,14.87
2019-03-01T16:00:14.740Z,14.73
2019-03-01T16:02:53.341Z,16.97
2019-03-01T16:05:34.219Z,16.73
2019-03-01T16:08:16.994Z,15.37
2019-03-01T16:10:55.510Z,15.67
2019-03-01T16:13:35.454Z,16.60
2019-03-01T16:16:13.597Z,18.80
2019-03-01T16:18:53.483Z,17.50
2019-03-01T16:21:29.726Z,16.60
2019-03-01T16:24:09.437Z,15.77
2019-03-01T16:26:53.391Z,17.27
2019-03-01T16:29:34.335Z,16.90
2019-03-01T16:32:10.476Z,15.93
2019-03-01T16:34:48.089Z,17.43
2019-03-01T16:37:26.902Z,15.63
2019-03-01T16:40:05.602Z,16.07
2019-03-01T16:42:44.226Z,18.80
2019-03-01T16:45:23.102Z,21.10
2019-03-01T16:48:02.322Z,19.97
2019-03-01T16:50:40.639Z,22.00
2019-03-01T16:53:20.740Z,15.97
2019-03-01T16:56:02.519Z,15.18
2019-03-01T16:58:42.686Z,13.43
2019-03-01T17:01:30.783Z,15.60
2019-03-01T17:04:07.390Z,16.37
2019-03-01T17:06:49.306Z,14.60
2019-03-01T17:09:28.005Z,13.53
2019-03-01T17:12:07.167Z,13.50
2019-03-01T17:14:43.988Z,12.27
2019-03-01T17:17:24.147Z,12.30
2019-03-01T17:20:03.718Z,12.43
2019-03-01T17:22:44.055Z,12.53
2019-03-01T17:25:23.376Z,13.10
2019-03-01T17:28:04.469Z,12.00
2019-03-01T17:30:39.762Z,13.10
2019-03-01T17:33:18.595Z,12.80
2019-03-01T17:35:53.625Z,14.87
2019-03-01T17:38:26.787Z,13.97
2019-03-01T17:41:00.214Z,15.93
2019-03-01T17:43:35.413Z,15.37
2019-03-01T17:46:08.555Z,16.90
2019-03-01T17:48:41.420Z,15.60
2019-03-01T17:51:18.039Z,17.10
2019-03-01T17:53:50.066Z,20.27
2019-03-01T17:56:23.422Z,17.13
2019-03-01T17:58:56.539Z,16.00
2019-03-01T18:01:29.916Z,16.87
2019-03-01T18:04:03.259Z,16.80
2019-03-01T18:06:36.277Z,16.47
2019-03-01T18:09:09.728Z,17.37
2019-03-01T18:11:44.677Z,18.67
2019-03-01T18:14:17.814Z,18.00
2019-03-01T18:16:51.002Z,19.63
2019-03-01T18:19:26.770Z,21.37
2019-03-01T18:21:59.001Z,18.73
2019-03-01T18:24:32.312Z,17.70
2019-03-01T18:27:05.299Z,20.60
2019-03-01T18:29:39.004Z,19.80
2019-03-01T18:32:13.198Z,18.10
2019-03-01T18:34:46.351Z,17.93
2019-03-01T18:37:19.913Z,15.03
2019-03-01T18:39:52.932Z,13.40
2019-03-01T18:42:25.947Z,15.40
2019-03-01T18:44:58.664Z,17.23
2019-03-01T18:47:31.644Z,15.57
2019-03-01T18:50:04.724Z,16.40
2019-03-01T18:52:37.914Z,15.50
2019-03-01T18:55:13.720Z,13.93
2019-03-01T18:57:47.577Z,16.50
2019-03-01T19:00:32.400Z,15.27
2019-03-01T19:03:05.516Z,14.97
2019-03-01T19:05:41.278Z,17.07
2019-03-01T19:08:13.722Z,16.87
2019-03-01T19:10:54.146Z,17.17
2019-03-01T19:13:24.425Z,16.23
2019-03-01T19:15:57.958Z,16.30
2019-03-01T19:18:31.358Z,18.13
2019-03-01T19:21:04.311Z,17.23
2019-03-01T19:23:37.275Z,19.40
2019-03-01T19:26:10.696Z,20.97
2019-03-01T19:28:43.978Z,17.37
2019-03-01T19:31:17.274Z,15.87
2019-03-01T19:33:50.808Z,16.17
2019-03-01T19:36:24.399Z,16.17
2019-03-01T19:39:00.255Z,16.50
2019-03-01T19:41:31.889Z,17.07
2019-03-01T19:44:05.294Z,20.10
2019-03-01T19:46:38.452Z,23.60
2019-03-01T19:49:12.858Z,21.80
2019-03-01T19:51:48.954Z,20.27
2019-03-01T19:54:22.082Z,18.83
2019-03-01T19:56:57.659Z,17.40
2019-03-01T19:59:30.003Z,17.53
2019-03-01T20:02:03.355Z,16.50
2019-03-01T20:04:36.906Z,18.63
2019-03-01T20:07:10.568Z,17.87
2019-03-01T20:09:43.728Z,18.27
2019-03-01T20:12:18.337Z,15.67
2019-03-01T20:14:51.375Z,16.63
2019-03-01T20:17:26.497Z,15.80
2019-03-01T20:19:59.416Z,14.97
2019-03-01T20:22:32.618Z,15.53
2019-03-01T20:25:07.755Z,16.40
2019-03-01T20:27:42.162Z,16.13
2019-03-01T20:30:19.031Z,16.57
2019-03-01T20:32:54.798Z,16.50
2019-03-01T20:35:28.167Z,16.77
2019-03-01T20:38:04.491Z,15.90
2019-03-01T20:40:36.727Z,15.87
2019-03-01T20:43:09.895Z,15.07
2019-03-01T20:45:43.665Z,15.33
2019-03-01T20:48:17.818Z,15.27
2019-03-01T20:50:53.802Z,15.17
2019-03-01T20:53:27.308Z,15.57
2019-03-01T20:56:03.023Z,13.97
2019-03-01T20:58:39.575Z,20.77
2019-03-01T21:01:11.288Z,18.43
2019-03-01T21:03:44.639Z,25.30
2019-03-01T21:06:19.748Z,20.33
2019-03-01T21:08:53.165Z,16.27
2019-03-01T21:11:26.664Z,16.20
2019-03-01T21:14:00.039Z,15.57
2019-03-01T21:16:33.638Z,14.73
2019-03-01T21:19:08.830Z,14.67
2019-03-01T21:21:42.066Z,14.37
2019-03-01T21:24:16.578Z,14.40
2019-03-01T21:26:52.470Z,18.33
2019-03-01T21:29:25.937Z,20.37
2019-03-01T21:31:59.140Z,14.57
2019-03-01T21:34:34.895Z,17.70
2019-03-01T21:37:08.108Z,16.30
2019-03-01T21:39:46.997Z,17.23
2019-03-01T21:42:20.501Z,15.77
2019-03-01T21:44:54.247Z,16.47
2019-03-01T21:47:27.443Z,15.97
2019-03-01T21:50:04.231Z,16.33
2019-03-01T21:52:36.568Z,17.00
2019-03-01T21:55:07.316Z,18.00
2019-03-01T21:57:41.277Z,21.00
2019-03-01T22:00:20.727Z,14.43
2019-03-01T22:02:54.393Z,14.30
2019-03-01T22:05:27.678Z,14.00
2019-03-01T22:08:01.291Z,13.73
2019-03-01T22:10:35.681Z,14.27
2019-03-01T22:13:10.010Z,14.53
2019-03-01T22:15:43.202Z,14.10
2019-03-01T22:18:16.505Z,15.40
2019-03-01T22:20:50.319Z,20.27
2019-03-01T22:23:23.535Z,16.17
2019-03-01T22:25:56.813Z,18.37
2019-03-01T22:28:32.683Z,15.97
2019-03-01T22:31:05.299Z,15.93
2019-03-01T22:33:38.316Z,16.50
2019-03-01T22:36:11.646Z,15.97
2019-03-01T22:38:44.962Z,15.17
2019-03-01T22:41:17.642Z,17.93
2019-03-01T22:43:52.091Z,20.33
2019-03-01T22:46:25.923Z,16.73
2019-03-01T22:48:58.911Z,20.30
2019-03-01T22:51:31.928Z,21.87
2019-03-01T22:54:06.438Z,27.77
2019-03-01T22:56:39.605Z,22.30
2019-03-01T22:59:12.681Z,20.60
2019-03-01T23:01:48.668Z,20.33
2019-03-01T23:04:21.772Z,19.40
2019-03-01T23:06:54.677Z,19.17
2019-03-01T23:09:28.225Z,21.93
2019-03-01T23:12:04.591Z,21.97
2019-03-01T23:14:35.993Z,19.93
2019-03-01T23:17:08.889Z,18.77
2019-03-01T23:19:42.054Z,17.93
2019-03-01T23:22:15.085Z,16.30
2019-03-01T23:24:49.477Z,17.60
2019-03-01T23:27:22.632Z,17.63
2019-03-01T23:29:55.308Z,17.27
2019-03-01T23:32:28.641Z,18.80
2019-03-01T23:35:01.541Z,17.63
2019-03-01T23:37:35.628Z,18.17
2019-03-01T23:40:09.520Z,19.13
2019-03-01T23:42:42.597Z,19.93
2019-03-01T23:45:17.495Z,19.90
2019-03-01T23:47:50.498Z,16.80
2019-03-01T23:50:23.857Z,18.00
2019-03-01T23:52:58.887Z,16.57
2019-03-01T23:55:31.230Z,18.13
2019-03-01T23:58:06.270Z,16.13
